createdAt,value
2017-09-19T00:00:16.927Z,0
2017-09-19T00:00:43.083Z,0
2017-09-19T00:01:09.197Z,0
2017-09-19T00:01:35.321Z,0
2017-09-19T00:02:01.430Z,0
2017-09-19T00:02:27.553Z,0
2017-09-19T00:02:53.654Z,0
2017-09-19T00:03:19.765Z,0
2017-09-19T00:03:45.889Z,0
2017-09-19T00:04:12.008Z,0
2017-09-19T00:04:38.124Z,0
2017-09-19T00:05:04.237Z,0
2017-09-19T00:05:30.362Z,0
2017-09-19T00:05:56.461Z,0
2017-09-19T00:06:22.578Z,0
2017-09-19T00:06:48.699Z,0
2017-09-19T00:07:14.824Z,0
2017-09-19T00:07:40.927Z,0
2017-09-19T00:08:07.040Z,0
2017-09-19T00:08:33.157Z,0
2017-09-19T00:08:59.281Z,0
2017-09-19T00:09:25.386Z,0
2017-09-19T00:09:51.500Z,0
2017-09-19T00:10:17.623Z,0
2017-09-19T00:10:43.730Z,0
2017-09-19T00:11:09.853Z,0
2017-09-19T00:11:35.960Z,0
2017-09-19T00:12:02.082Z,0
2017-09-19T00:12:28.189Z,0
2017-09-19T00:12:54.313Z,0
2017-09-19T00:13:20.432Z,0
2017-09-19T00:13:46.539Z,0
2017-09-19T00:14:12.652Z,0
2017-09-19T00:14:38.769Z,0
2017-09-19T00:15:04.893Z,0
2017-09-19T00:15:31.017Z,0
2017-09-19T00:15:57.151Z,0
2017-09-19T00:16:23.275Z,0
2017-09-19T00:16:49.396Z,0
2017-09-19T00:17:15.500Z,0
2017-09-19T00:17:41.623Z,0
2017-09-19T00:18:07.731Z,0
2017-09-19T00:18:33.853Z,0
2017-09-19T00:18:59.962Z,0
2017-09-19T00:19:26.087Z,0
2017-09-19T00:19:52.190Z,0
2017-09-19T00:20:18.358Z,0
2017-09-19T00:20:44.441Z,0
2017-09-19T00:21:10.565Z,0
2017-09-19T00:21:36.668Z,0
2017-09-19T00:22:02.783Z,0
2017-09-19T00:22:28.923Z,0
2017-09-19T00:22:55.030Z,0
2017-09-19T00:23:21.165Z,0
2017-09-19T00:23:47.268Z,0
2017-09-19T00:24:13.391Z,0
2017-09-19T00:24:39.508Z,0
2017-09-19T00:25:05.631Z,0
2017-09-19T00:25:31.751Z,0
2017-09-19T00:25:57.852Z,0
2017-09-19T00:26:23.980Z,0
2017-09-19T00:26:50.101Z,0
2017-09-19T00:27:16.232Z,0
2017-09-19T00:27:42.338Z,0
2017-09-19T00:28:08.455Z,0
2017-09-19T00:28:34.565Z,0
2017-09-19T00:29:00.671Z,0
2017-09-19T00:29:26.789Z,0
2017-09-19T00:29:52.895Z,0
2017-09-19T00:30:19.021Z,0
2017-09-19T00:30:45.145Z,0
2017-09-19T00:31:11.251Z,0
2017-09-19T00:31:37.373Z,0
2017-09-19T00:32:03.481Z,0
2017-09-19T00:32:29.603Z,0
2017-09-19T00:32:55.709Z,0
2017-09-19T00:33:21.823Z,0
2017-09-19T00:33:47.947Z,0
2017-09-19T00:34:14.062Z,0
2017-09-19T00:34:40.171Z,0
2017-09-19T00:35:06.283Z,0
2017-09-19T00:35:32.406Z,0
2017-09-19T00:35:58.513Z,0
2017-09-19T00:36:24.636Z,0
2017-09-19T00:36:50.755Z,0
2017-09-19T00:37:16.863Z,0
2017-09-19T00:37:42.986Z,0
2017-09-19T00:38:09.092Z,0
2017-09-19T00:38:35.203Z,0
2017-09-19T00:39:01.323Z,0
2017-09-19T00:39:27.444Z,0
2017-09-19T00:39:53.552Z,0
2017-09-19T00:40:19.663Z,0
2017-09-19T00:40:45.787Z,0
2017-09-19T00:41:11.892Z,0
2017-09-19T00:41:38.014Z,0
2017-09-19T00:42:04.110Z,0
2017-09-19T00:42:30.229Z,0
2017-09-19T00:42:56.353Z,0
2017-09-19T00:43:22.473Z,0
2017-09-19T00:43:48.607Z,0
2017-09-19T00:44:14.729Z,0
2017-09-19T00:44:40.841Z,0
2017-09-19T00:45:06.953Z,0
2017-09-19T00:45:33.064Z,0
2017-09-19T00:45:59.174Z,0
2017-09-19T00:46:25.295Z,0
2017-09-19T00:46:51.415Z,0
2017-09-19T00:47:17.521Z,0
2017-09-19T00:47:43.640Z,0
2017-09-19T00:48:09.756Z,0
2017-09-19T00:48:35.879Z,0
2017-09-19T00:49:02.004Z,0
2017-09-19T00:49:28.117Z,0
2017-09-19T00:49:54.227Z,0
2017-09-19T00:50:20.378Z,0
2017-09-19T00:50:46.489Z,0
2017-09-19T00:51:12.597Z,0
2017-09-19T00:51:38.714Z,0
2017-09-19T00:52:04.830Z,0
2017-09-19T00:52:30.949Z,0
2017-09-19T00:52:57.053Z,0
2017-09-19T00:53:23.175Z,0
2017-09-19T00:53:49.282Z,0
2017-09-19T00:54:15.410Z,0
2017-09-19T00:54:41.534Z,0
2017-09-19T00:55:07.640Z,0
2017-09-19T00:55:33.763Z,0
2017-09-19T00:55:59.904Z,0
2017-09-19T00:56:26.010Z,0
2017-09-19T00:56:52.121Z,0
2017-09-19T00:57:18.238Z,0
2017-09-19T00:57:44.349Z,0
2017-09-19T00:58:10.473Z,0
2017-09-19T00:58:36.593Z,0
2017-09-19T00:59:02.701Z,0
2017-09-19T00:59:28.811Z,0
2017-09-19T00:59:54.935Z,0
2017-09-19T01:00:21.065Z,0
2017-09-19T01:00:47.184Z,0
2017-09-19T01:01:13.304Z,0
2017-09-19T01:01:39.432Z,0
2017-09-19T01:02:05.555Z,0
2017-09-19T01:02:31.680Z,0
2017-09-19T01:02:57.809Z,0
2017-09-19T01:03:23.928Z,0
2017-09-19T01:03:50.050Z,0
2017-09-19T01:04:16.169Z,0
2017-09-19T01:04:42.297Z,0
2017-09-19T01:05:08.414Z,0
2017-09-19T01:05:34.521Z,0
2017-09-19T01:06:00.640Z,0
2017-09-19T01:06:26.757Z,0
2017-09-19T01:06:52.856Z,0
2017-09-19T01:07:18.969Z,0
2017-09-19T01:07:45.085Z,0
2017-09-19T01:08:11.207Z,0
2017-09-19T01:08:37.319Z,0
2017-09-19T01:09:03.438Z,0
2017-09-19T01:09:29.560Z,0
2017-09-19T01:09:55.680Z,0
2017-09-19T01:10:21.792Z,0
2017-09-19T01:10:47.908Z,0
2017-09-19T01:11:14.028Z,0
2017-09-19T01:11:40.140Z,0
2017-09-19T01:12:06.247Z,0
2017-09-19T01:12:32.351Z,0
2017-09-19T01:12:58.461Z,0
2017-09-19T01:13:24.585Z,0
2017-09-19T01:13:50.704Z,0
2017-09-19T01:14:16.821Z,0
2017-09-19T01:14:42.937Z,0
2017-09-19T01:15:09.055Z,0
2017-09-19T01:15:35.162Z,0
2017-09-19T01:16:01.285Z,0
2017-09-19T01:16:27.392Z,0
2017-09-19T01:16:53.503Z,0
2017-09-19T01:17:19.622Z,0
2017-09-19T01:17:45.747Z,0
2017-09-19T01:18:11.851Z,0
2017-09-19T01:18:37.963Z,0
2017-09-19T01:19:04.088Z,0
2017-09-19T01:19:30.191Z,0
2017-09-19T01:19:56.316Z,0
2017-09-19T01:20:22.438Z,0
2017-09-19T01:20:48.552Z,0
2017-09-19T01:21:14.666Z,0
2017-09-19T01:21:40.788Z,0
2017-09-19T01:22:06.895Z,0
2017-09-19T01:22:33.018Z,0
2017-09-19T01:22:59.133Z,0
2017-09-19T01:23:25.237Z,0
2017-09-19T01:23:51.362Z,0
2017-09-19T01:24:17.468Z,0
2017-09-19T01:24:43.594Z,0
2017-09-19T01:25:09.706Z,0
2017-09-19T01:25:35.811Z,0
2017-09-19T01:26:01.938Z,0
2017-09-19T01:26:28.051Z,0
2017-09-19T01:26:54.157Z,0
2017-09-19T01:27:20.269Z,0
2017-09-19T01:27:46.386Z,0
2017-09-19T01:28:12.509Z,0
2017-09-19T01:28:38.640Z,0
2017-09-19T01:29:04.750Z,0
2017-09-19T01:29:30.872Z,0
2017-09-19T01:29:56.978Z,0
2017-09-19T01:30:23.104Z,0
2017-09-19T01:30:49.209Z,0
2017-09-19T01:31:15.331Z,0
2017-09-19T01:31:41.449Z,0
2017-09-19T01:32:07.561Z,0
2017-09-19T01:32:33.666Z,0
2017-09-19T01:32:59.792Z,0
2017-09-19T01:33:25.917Z,0
2017-09-19T01:33:52.014Z,0
2017-09-19T01:34:18.137Z,0
2017-09-19T01:34:44.248Z,0
2017-09-19T01:35:10.365Z,0
2017-09-19T01:35:36.477Z,0
2017-09-19T01:36:02.584Z,0
2017-09-19T01:36:28.708Z,0
2017-09-19T01:36:54.827Z,0
2017-09-19T01:37:20.934Z,0
2017-09-19T01:37:47.049Z,0
2017-09-19T01:38:13.176Z,0
2017-09-19T01:38:39.292Z,0
2017-09-19T01:39:05.403Z,0
2017-09-19T01:39:31.511Z,0
2017-09-19T01:39:57.646Z,0
2017-09-19T01:40:23.779Z,0
2017-09-19T01:40:49.883Z,0
2017-09-19T01:41:15.995Z,0
2017-09-19T01:41:42.106Z,0
2017-09-19T01:42:08.224Z,0
2017-09-19T01:42:34.326Z,0
2017-09-19T01:43:00.460Z,0
2017-09-19T01:43:26.585Z,0
2017-09-19T01:43:52.699Z,0
2017-09-19T01:44:18.817Z,0
2017-09-19T01:44:44.929Z,0
2017-09-19T01:45:11.052Z,0
2017-09-19T01:45:37.168Z,0
2017-09-19T01:46:03.288Z,0
2017-09-19T01:46:29.396Z,0
2017-09-19T01:46:55.515Z,0
2017-09-19T01:47:21.623Z,0
2017-09-19T01:47:47.729Z,0
2017-09-19T01:48:13.855Z,0
2017-09-19T01:48:39.960Z,0
2017-09-19T01:49:06.084Z,0
2017-09-19T01:49:32.194Z,0
2017-09-19T01:49:58.304Z,0
2017-09-19T01:50:24.426Z,0
2017-09-19T01:50:50.546Z,0
2017-09-19T01:51:16.653Z,0
2017-09-19T01:51:42.796Z,0
2017-09-19T01:52:08.909Z,0
2017-09-19T01:52:35.026Z,0
2017-09-19T01:53:01.130Z,0
2017-09-19T01:53:27.254Z,0
2017-09-19T01:53:53.378Z,0
2017-09-19T01:54:19.490Z,0
2017-09-19T01:54:45.616Z,0
2017-09-19T01:55:11.742Z,0
2017-09-19T01:55:37.866Z,0
2017-09-19T01:56:04.000Z,0
2017-09-19T01:56:30.106Z,0
2017-09-19T01:56:56.217Z,0
2017-09-19T01:57:22.339Z,0
2017-09-19T01:57:48.456Z,0
2017-09-19T01:58:14.563Z,0
2017-09-19T01:58:40.686Z,0
2017-09-19T01:59:06.792Z,0
2017-09-19T01:59:32.913Z,0
2017-09-19T01:59:59.026Z,0
2017-09-19T02:00:25.143Z,0
2017-09-19T02:00:51.253Z,0
2017-09-19T02:01:17.380Z,0
2017-09-19T02:01:43.496Z,0
2017-09-19T02:02:09.617Z,0
2017-09-19T02:02:35.760Z,0
2017-09-19T02:03:01.877Z,0
2017-09-19T02:03:28.005Z,0
2017-09-19T02:03:54.116Z,0
2017-09-19T02:04:20.242Z,0
2017-09-19T02:04:46.368Z,0
2017-09-19T02:05:12.490Z,0
2017-09-19T02:05:38.611Z,0
2017-09-19T02:06:04.725Z,0
2017-09-19T02:06:30.844Z,0
2017-09-19T02:06:56.958Z,0
2017-09-19T02:07:23.081Z,0
2017-09-19T02:07:49.207Z,0
2017-09-19T02:08:15.328Z,0
2017-09-19T02:08:41.441Z,0
2017-09-19T02:09:07.569Z,0
2017-09-19T02:09:33.696Z,0
2017-09-19T02:09:59.809Z,0
2017-09-19T02:10:25.940Z,0
2017-09-19T02:10:52.059Z,0
2017-09-19T02:11:18.183Z,0
2017-09-19T02:11:44.306Z,0
2017-09-19T02:12:10.421Z,0
2017-09-19T02:12:36.549Z,0
2017-09-19T02:13:02.664Z,0
2017-09-19T02:13:28.790Z,0
2017-09-19T02:13:54.912Z,0
2017-09-19T02:14:21.030Z,0
2017-09-19T02:14:47.156Z,0
2017-09-19T02:15:13.278Z,0
2017-09-19T02:15:39.395Z,0
2017-09-19T02:16:05.515Z,0
2017-09-19T02:16:31.640Z,0
2017-09-19T02:16:57.763Z,0
2017-09-19T02:17:23.883Z,0
2017-09-19T02:17:50.004Z,0
2017-09-19T02:18:16.121Z,0
2017-09-19T02:18:42.247Z,0
2017-09-19T02:19:08.364Z,0
2017-09-19T02:19:34.483Z,0
2017-09-19T02:20:00.605Z,0
2017-09-19T02:20:26.728Z,0
2017-09-19T02:20:52.843Z,0
2017-09-19T02:21:18.962Z,0
2017-09-19T02:21:45.086Z,0
2017-09-19T02:22:11.210Z,0
2017-09-19T02:22:37.345Z,0
2017-09-19T02:23:03.466Z,0
2017-09-19T02:23:29.593Z,0
2017-09-19T02:23:55.715Z,0
2017-09-19T02:24:21.843Z,0
2017-09-19T02:24:47.957Z,0
2017-09-19T02:25:14.081Z,0
2017-09-19T02:25:40.200Z,0
2017-09-19T02:26:06.316Z,0
2017-09-19T02:26:32.445Z,0
2017-09-19T02:26:58.563Z,0
2017-09-19T02:27:24.687Z,0
2017-09-19T02:27:50.809Z,0
2017-09-19T02:28:16.929Z,0
2017-09-19T02:28:43.047Z,0
2017-09-19T02:29:09.174Z,0
2017-09-19T02:29:35.298Z,0
2017-09-19T02:30:01.416Z,0
2017-09-19T02:30:27.535Z,0
2017-09-19T02:30:53.673Z,0
2017-09-19T02:31:19.799Z,0
2017-09-19T02:31:45.943Z,0
2017-09-19T02:32:12.060Z,0
2017-09-19T02:32:38.181Z,0
2017-09-19T02:33:04.298Z,0
2017-09-19T02:33:30.414Z,0
2017-09-19T02:33:56.534Z,0
2017-09-19T02:34:22.657Z,0
2017-09-19T02:34:48.772Z,0
2017-09-19T02:35:14.891Z,0
2017-09-19T02:35:41.017Z,0
2017-09-19T02:36:07.137Z,0
2017-09-19T02:36:33.252Z,0
2017-09-19T02:36:59.400Z,0
2017-09-19T02:37:25.518Z,0
2017-09-19T02:37:51.641Z,0
2017-09-19T02:38:17.756Z,0
2017-09-19T02:38:43.901Z,0
2017-09-19T02:39:10.001Z,0
2017-09-19T02:39:36.113Z,0
2017-09-19T02:40:02.238Z,0
2017-09-19T02:40:28.353Z,0
2017-09-19T02:40:54.480Z,0
2017-09-19T02:41:20.605Z,0
2017-09-19T02:41:46.722Z,0
2017-09-19T02:42:12.842Z,0
2017-09-19T02:42:38.966Z,0
2017-09-19T02:43:05.088Z,0
2017-09-19T02:43:31.203Z,0
2017-09-19T02:43:57.333Z,0
2017-09-19T02:44:23.448Z,0
2017-09-19T02:44:49.609Z,0
2017-09-19T02:45:15.751Z,0
2017-09-19T02:45:41.872Z,0
2017-09-19T02:46:07.987Z,0
2017-09-19T02:46:34.114Z,0
2017-09-19T02:47:00.234Z,0
2017-09-19T02:47:26.367Z,0
2017-09-19T02:47:52.497Z,0
2017-09-19T02:48:18.615Z,0
2017-09-19T02:48:44.741Z,0
2017-09-19T02:49:10.865Z,0
2017-09-19T02:49:37.008Z,0
2017-09-19T02:50:03.122Z,0
2017-09-19T02:50:29.287Z,0
2017-09-19T02:50:55.413Z,0
2017-09-19T02:51:21.533Z,0
2017-09-19T02:51:47.657Z,0
2017-09-19T02:52:13.791Z,0
2017-09-19T02:52:39.920Z,0
2017-09-19T02:53:06.038Z,0
2017-09-19T02:53:32.162Z,0
2017-09-19T02:53:58.280Z,0
2017-09-19T02:54:24.432Z,0
2017-09-19T02:54:50.553Z,0
2017-09-19T02:55:16.669Z,0
2017-09-19T02:55:42.790Z,0
2017-09-19T02:56:08.916Z,0
2017-09-19T02:56:35.028Z,0
2017-09-19T02:57:01.178Z,0
2017-09-19T02:57:27.294Z,0
2017-09-19T02:57:53.413Z,0
2017-09-19T02:58:19.539Z,0
2017-09-19T02:58:45.662Z,0
2017-09-19T02:59:11.778Z,0
2017-09-19T02:59:37.916Z,0
2017-09-19T03:00:04.064Z,0
2017-09-19T03:00:30.183Z,0
2017-09-19T03:00:56.326Z,0
2017-09-19T03:01:22.442Z,0
2017-09-19T03:01:48.587Z,0
2017-09-19T03:02:14.712Z,0
2017-09-19T03:02:40.833Z,0
2017-09-19T03:03:06.948Z,0
2017-09-19T03:03:33.074Z,0
2017-09-19T03:03:59.189Z,0
2017-09-19T03:04:25.316Z,0
2017-09-19T03:04:51.433Z,0
2017-09-19T03:05:17.577Z,0
2017-09-19T03:05:43.729Z,0
2017-09-19T03:06:09.846Z,0
2017-09-19T03:06:35.968Z,0
2017-09-19T03:07:02.093Z,0
2017-09-19T03:07:28.220Z,0
2017-09-19T03:07:54.387Z,0
2017-09-19T03:08:20.509Z,0
2017-09-19T03:08:46.631Z,0
2017-09-19T03:09:12.748Z,0
2017-09-19T03:09:38.877Z,0
2017-09-19T03:10:04.998Z,0
2017-09-19T03:10:31.114Z,0
2017-09-19T03:10:57.230Z,0
2017-09-19T03:11:23.350Z,0
2017-09-19T03:11:49.467Z,0
2017-09-19T03:12:15.596Z,0
2017-09-19T03:12:41.710Z,0
2017-09-19T03:13:07.828Z,0
2017-09-19T03:13:33.948Z,0
2017-09-19T03:14:00.068Z,0
2017-09-19T03:14:26.189Z,0
2017-09-19T03:14:52.328Z,0
2017-09-19T03:15:18.464Z,0
2017-09-19T03:15:44.582Z,0
2017-09-19T03:16:10.702Z,0
2017-09-19T03:16:36.827Z,0
2017-09-19T03:17:02.957Z,0
2017-09-19T03:17:29.094Z,0
2017-09-19T03:17:55.215Z,0
2017-09-19T03:18:21.340Z,0
2017-09-19T03:18:47.456Z,0
2017-09-19T03:19:13.582Z,0
2017-09-19T03:19:39.702Z,0
2017-09-19T03:20:05.824Z,0
2017-09-19T03:20:31.937Z,0
2017-09-19T03:20:58.063Z,0
2017-09-19T03:21:24.183Z,0
2017-09-19T03:21:50.302Z,0
2017-09-19T03:22:16.428Z,0
2017-09-19T03:22:42.547Z,0
2017-09-19T03:23:08.671Z,0
2017-09-19T03:23:34.784Z,0
2017-09-19T03:24:00.905Z,0
2017-09-19T03:24:27.030Z,0
2017-09-19T03:24:53.148Z,0
2017-09-19T03:25:19.290Z,0
2017-09-19T03:25:45.404Z,0
2017-09-19T03:26:11.528Z,0
2017-09-19T03:26:37.655Z,0
2017-09-19T03:27:03.776Z,0
2017-09-19T03:27:29.897Z,0
2017-09-19T03:27:56.019Z,0
2017-09-19T03:28:22.141Z,0
2017-09-19T03:28:48.257Z,0
2017-09-19T03:29:14.375Z,0
2017-09-19T03:29:40.497Z,0
2017-09-19T03:30:06.635Z,0
2017-09-19T03:30:32.764Z,0
2017-09-19T03:30:58.879Z,0
2017-09-19T03:31:25.002Z,0
2017-09-19T03:31:51.123Z,0
2017-09-19T03:32:17.245Z,0
2017-09-19T03:32:43.390Z,0
2017-09-19T03:33:09.504Z,0
2017-09-19T03:33:35.630Z,0
2017-09-19T03:34:01.751Z,0
2017-09-19T03:34:27.874Z,0
2017-09-19T03:34:53.990Z,0
2017-09-19T03:35:20.127Z,0
2017-09-19T03:35:46.252Z,0
2017-09-19T03:36:12.363Z,0
2017-09-19T03:36:38.486Z,0
2017-09-19T03:37:04.603Z,0
2017-09-19T03:37:30.730Z,0
2017-09-19T03:37:56.860Z,0
2017-09-19T03:38:22.977Z,0
2017-09-19T03:38:49.100Z,0
2017-09-19T03:39:15.219Z,0
2017-09-19T03:39:41.345Z,0
2017-09-19T03:40:07.466Z,0
2017-09-19T03:40:33.591Z,0
2017-09-19T03:40:59.708Z,0
2017-09-19T03:41:25.848Z,0
2017-09-19T03:41:51.975Z,0
2017-09-19T03:42:18.097Z,0
2017-09-19T03:42:44.232Z,0
2017-09-19T03:43:10.351Z,0
2017-09-19T03:43:36.483Z,0
2017-09-19T03:44:02.624Z,0
2017-09-19T03:44:28.743Z,0
2017-09-19T03:44:54.859Z,0
2017-09-19T03:45:20.987Z,0
2017-09-19T03:45:47.108Z,0
2017-09-19T03:46:13.226Z,0
2017-09-19T03:46:39.368Z,0
2017-09-19T03:47:05.470Z,0
2017-09-19T03:47:31.594Z,0
2017-09-19T03:47:57.715Z,0
2017-09-19T03:48:23.831Z,0
2017-09-19T03:48:49.956Z,0
2017-09-19T03:49:16.073Z,0
2017-09-19T03:49:42.200Z,0
2017-09-19T03:50:08.315Z,0
2017-09-19T03:50:34.454Z,0
2017-09-19T03:51:00.581Z,0
2017-09-19T03:51:26.696Z,0
2017-09-19T03:51:52.815Z,0
2017-09-19T03:52:18.946Z,0
2017-09-19T03:52:45.066Z,0
2017-09-19T03:53:11.190Z,0
2017-09-19T03:53:37.310Z,0
2017-09-19T03:54:03.429Z,0
2017-09-19T03:54:29.548Z,0
2017-09-19T03:54:55.673Z,0
2017-09-19T03:55:21.790Z,0
2017-09-19T03:55:47.915Z,0
2017-09-19T03:56:14.032Z,0
2017-09-19T03:56:40.150Z,0
2017-09-19T03:57:06.275Z,0
2017-09-19T03:57:32.395Z,0
2017-09-19T03:57:58.516Z,0
2017-09-19T03:58:24.639Z,0
2017-09-19T03:58:50.767Z,0
2017-09-19T03:59:16.880Z,0
2017-09-19T03:59:42.999Z,0
2017-09-19T04:00:09.125Z,0
2017-09-19T04:00:35.238Z,0
2017-09-19T04:01:01.359Z,0
2017-09-19T04:01:27.476Z,0
2017-09-19T04:01:53.597Z,0
2017-09-19T04:02:19.720Z,0
2017-09-19T04:02:45.848Z,0
2017-09-19T04:03:11.963Z,0
2017-09-19T04:03:38.088Z,0
2017-09-19T04:04:04.204Z,0
2017-09-19T04:04:30.327Z,0
2017-09-19T04:04:56.455Z,0
2017-09-19T04:05:22.571Z,0
2017-09-19T04:05:48.689Z,0
2017-09-19T04:06:14.814Z,0
2017-09-19T04:06:40.937Z,0
2017-09-19T04:07:07.055Z,0
2017-09-19T04:07:33.182Z,0
2017-09-19T04:07:59.304Z,0
2017-09-19T04:08:25.424Z,0
2017-09-19T04:08:51.541Z,0
2017-09-19T04:09:17.659Z,0
2017-09-19T04:09:43.786Z,0
2017-09-19T04:10:09.900Z,0
2017-09-19T04:10:36.024Z,0
2017-09-19T04:11:02.150Z,0
2017-09-19T04:11:28.266Z,0
2017-09-19T04:11:54.393Z,0
2017-09-19T04:12:20.508Z,0
2017-09-19T04:12:46.626Z,0
2017-09-19T04:13:12.775Z,0
2017-09-19T04:13:38.891Z,0
2017-09-19T04:14:05.017Z,0
2017-09-19T04:14:31.129Z,0
2017-09-19T04:14:57.252Z,0
2017-09-19T04:15:23.369Z,0
2017-09-19T04:15:49.501Z,0
2017-09-19T04:16:15.630Z,0
2017-09-19T04:16:41.748Z,0
2017-09-19T04:17:07.869Z,0
2017-09-19T04:17:34.010Z,0
2017-09-19T04:18:00.134Z,0
2017-09-19T04:18:26.250Z,0
2017-09-19T04:18:52.392Z,0
2017-09-19T04:19:18.514Z,0
2017-09-19T04:19:44.630Z,0
2017-09-19T04:20:10.772Z,0
2017-09-19T04:20:36.889Z,0
2017-09-19T04:21:03.014Z,0
2017-09-19T04:21:29.128Z,0
2017-09-19T04:21:55.254Z,0
2017-09-19T04:22:21.379Z,0
2017-09-19T04:22:47.495Z,0
2017-09-19T04:23:13.635Z,0
2017-09-19T04:23:39.765Z,0
2017-09-19T04:24:05.885Z,0
2017-09-19T04:24:32.011Z,0
2017-09-19T04:24:58.130Z,0
2017-09-19T04:25:24.271Z,0
2017-09-19T04:25:50.391Z,0
2017-09-19T04:26:16.512Z,0
2017-09-19T04:26:42.637Z,0
2017-09-19T04:27:08.761Z,0
2017-09-19T04:27:34.878Z,0
2017-09-19T04:28:01.004Z,0
2017-09-19T04:28:27.127Z,0
2017-09-19T04:28:53.263Z,0
2017-09-19T04:29:19.386Z,0
2017-09-19T04:29:45.505Z,0
2017-09-19T04:30:11.626Z,0
2017-09-19T04:30:37.742Z,0
2017-09-19T04:31:03.887Z,0
2017-09-19T04:31:30.001Z,0
2017-09-19T04:31:56.120Z,0
2017-09-19T04:32:22.250Z,0
2017-09-19T04:32:48.370Z,0
2017-09-19T04:33:14.489Z,0
2017-09-19T04:33:40.615Z,0
2017-09-19T04:34:06.733Z,0
2017-09-19T04:34:32.851Z,0
2017-09-19T04:34:58.977Z,0
2017-09-19T04:35:25.092Z,0
2017-09-19T04:35:51.212Z,0
2017-09-19T04:36:17.332Z,0
2017-09-19T04:36:43.454Z,0
2017-09-19T04:37:09.581Z,0
2017-09-19T04:37:35.701Z,0
2017-09-19T04:38:01.819Z,0
2017-09-19T04:38:27.945Z,0
2017-09-19T04:38:54.060Z,0
2017-09-19T04:39:20.182Z,0
2017-09-19T04:39:46.303Z,0
2017-09-19T04:40:12.429Z,0
2017-09-19T04:40:38.543Z,0
2017-09-19T04:41:04.669Z,0
2017-09-19T04:41:30.793Z,4
2017-09-19T04:41:56.910Z,4
2017-09-19T04:42:23.036Z,4
2017-09-19T04:42:49.156Z,0
2017-09-19T04:43:15.273Z,0
2017-09-19T04:43:41.400Z,0
2017-09-19T04:44:07.529Z,4
2017-09-19T04:44:33.642Z,4
2017-09-19T04:44:59.763Z,4
2017-09-19T04:45:25.889Z,4
2017-09-19T04:45:52.007Z,4
2017-09-19T04:46:18.133Z,4
2017-09-19T04:46:44.256Z,4
2017-09-19T04:47:10.374Z,4
2017-09-19T04:47:36.502Z,4
2017-09-19T04:48:02.622Z,8
2017-09-19T04:48:28.734Z,4
2017-09-19T04:48:54.860Z,4
2017-09-19T04:49:20.978Z,8
2017-09-19T04:49:47.099Z,4
2017-09-19T04:50:13.244Z,8
2017-09-19T04:50:39.355Z,8
2017-09-19T04:51:05.473Z,8
2017-09-19T04:51:31.599Z,8
2017-09-19T04:51:57.714Z,12
2017-09-19T04:52:23.868Z,12
2017-09-19T04:52:49.981Z,12
2017-09-19T04:53:16.108Z,12
2017-09-19T04:53:42.226Z,16
2017-09-19T04:54:08.348Z,16
2017-09-19T04:54:34.464Z,20
2017-09-19T04:55:00.585Z,20
2017-09-19T04:55:26.716Z,20
2017-09-19T04:55:52.832Z,24
2017-09-19T04:56:18.973Z,24
2017-09-19T04:56:45.107Z,24
2017-09-19T04:57:11.234Z,28
2017-09-19T04:57:37.353Z,28
2017-09-19T04:58:03.481Z,28
2017-09-19T04:58:29.598Z,32
2017-09-19T04:58:55.736Z,32
2017-09-19T04:59:21.865Z,36
2017-09-19T04:59:47.981Z,40
2017-09-19T05:00:14.106Z,40
2017-09-19T05:00:40.229Z,40
2017-09-19T05:01:06.365Z,40
2017-09-19T05:01:32.494Z,40
2017-09-19T05:01:58.608Z,44
2017-09-19T05:02:24.728Z,44
2017-09-19T05:02:50.854Z,48
2017-09-19T05:03:16.970Z,48
2017-09-19T05:03:43.116Z,48
2017-09-19T05:04:09.233Z,52
2017-09-19T05:04:35.359Z,56
2017-09-19T05:05:01.481Z,56
2017-09-19T05:05:27.600Z,64
2017-09-19T05:05:53.725Z,64
2017-09-19T05:06:19.842Z,72
2017-09-19T05:06:45.968Z,72
2017-09-19T05:07:12.151Z,76
2017-09-19T05:07:38.276Z,80
2017-09-19T05:08:04.391Z,84
2017-09-19T05:08:30.509Z,84
2017-09-19T05:08:56.636Z,88
2017-09-19T05:09:22.749Z,96
2017-09-19T05:09:48.870Z,104
2017-09-19T05:10:14.988Z,108
2017-09-19T05:10:41.142Z,120
2017-09-19T05:11:07.237Z,128
2017-09-19T05:11:33.356Z,132
2017-09-19T05:11:59.484Z,136
2017-09-19T05:12:25.604Z,136
2017-09-19T05:12:51.723Z,140
2017-09-19T05:13:17.849Z,144
2017-09-19T05:13:43.968Z,148
2017-09-19T05:14:10.090Z,148
2017-09-19T05:14:36.214Z,156
2017-09-19T05:15:02.328Z,164
2017-09-19T05:15:28.451Z,176
2017-09-19T05:15:54.567Z,180
2017-09-19T05:16:20.692Z,184
2017-09-19T05:16:46.812Z,192
2017-09-19T05:17:12.934Z,200
2017-09-19T05:17:39.058Z,216
2017-09-19T05:18:05.176Z,224
2017-09-19T05:18:31.298Z,240
2017-09-19T05:18:57.418Z,272
2017-09-19T05:19:23.563Z,300
2017-09-19T05:19:49.683Z,316
2017-09-19T05:20:15.808Z,328
2017-09-19T05:20:41.931Z,332
2017-09-19T05:21:08.047Z,328
2017-09-19T05:21:34.166Z,328
2017-09-19T05:22:00.293Z,336
2017-09-19T05:22:26.417Z,352
2017-09-19T05:22:52.537Z,368
2017-09-19T05:23:18.653Z,380
2017-09-19T05:23:44.775Z,392
2017-09-19T05:24:10.893Z,420
2017-09-19T05:24:37.040Z,460
2017-09-19T05:25:03.162Z,500
2017-09-19T05:25:29.281Z,532
2017-09-19T05:25:55.403Z,548
2017-09-19T05:26:21.519Z,544
2017-09-19T05:26:47.644Z,540
2017-09-19T05:27:13.761Z,544
2017-09-19T05:27:39.879Z,548
2017-09-19T05:28:06.003Z,560
2017-09-19T05:28:32.119Z,572
2017-09-19T05:28:58.246Z,584
2017-09-19T05:29:24.370Z,600
2017-09-19T05:29:50.485Z,612
2017-09-19T05:30:16.610Z,620
2017-09-19T05:30:42.726Z,620
2017-09-19T05:31:08.865Z,628
2017-09-19T05:31:34.985Z,632
2017-09-19T05:32:01.108Z,644
2017-09-19T05:32:27.231Z,656
2017-09-19T05:32:53.349Z,672
2017-09-19T05:33:19.472Z,688
2017-09-19T05:33:45.591Z,708
2017-09-19T05:34:11.738Z,728
2017-09-19T05:34:37.855Z,752
2017-09-19T05:35:03.989Z,784
2017-09-19T05:35:30.115Z,812
2017-09-19T05:35:56.239Z,840
2017-09-19T05:36:22.360Z,856
2017-09-19T05:36:48.507Z,864
2017-09-19T05:37:14.627Z,864
2017-09-19T05:37:40.751Z,864
2017-09-19T05:38:06.868Z,860
2017-09-19T05:38:32.986Z,868
2017-09-19T05:38:59.110Z,880
2017-09-19T05:39:25.232Z,896
2017-09-19T05:39:51.350Z,908
2017-09-19T05:40:17.462Z,928
2017-09-19T05:40:43.587Z,944
2017-09-19T05:41:09.703Z,952
2017-09-19T05:41:35.856Z,960
2017-09-19T05:42:01.975Z,968
2017-09-19T05:42:28.102Z,988
2017-09-19T05:42:54.220Z,1008
2017-09-19T05:43:20.340Z,1024
2017-09-19T05:43:46.458Z,1040
2017-09-19T05:44:12.584Z,1052
2017-09-19T05:44:38.702Z,1056
2017-09-19T05:45:04.822Z,1052
2017-09-19T05:45:30.942Z,1044
2017-09-19T05:45:57.075Z,1036
2017-09-19T05:46:23.187Z,1028
2017-09-19T05:46:49.306Z,1032
2017-09-19T05:47:15.429Z,1048
2017-09-19T05:47:41.546Z,1056
2017-09-19T05:48:07.670Z,1064
2017-09-19T05:48:33.794Z,1060
2017-09-19T05:48:59.914Z,1056
2017-09-19T05:49:26.032Z,1056
2017-09-19T05:49:52.154Z,1064
2017-09-19T05:50:18.278Z,1064
2017-09-19T05:50:44.396Z,1060
2017-09-19T05:51:10.522Z,1068
2017-09-19T05:51:36.639Z,1096
2017-09-19T05:52:02.763Z,1136
2017-09-19T05:52:28.884Z,1152
2017-09-19T05:52:55.001Z,1140
2017-09-19T05:53:21.124Z,1124
2017-09-19T05:53:47.244Z,1108
2017-09-19T05:54:13.359Z,1076
2017-09-19T05:54:39.482Z,1024
2017-09-19T05:55:05.602Z,972
2017-09-19T05:55:31.725Z,928
2017-09-19T05:55:57.846Z,908
2017-09-19T05:56:23.966Z,908
2017-09-19T05:56:50.085Z,932
2017-09-19T05:57:16.207Z,972
2017-09-19T05:57:42.333Z,1020
2017-09-19T05:58:08.456Z,1048
2017-09-19T05:58:34.577Z,1040
2017-09-19T05:59:00.704Z,1004
2017-09-19T05:59:26.822Z,956
2017-09-19T05:59:52.970Z,904
2017-09-19T06:00:19.087Z,864
2017-09-19T06:00:45.205Z,832
2017-09-19T06:01:11.321Z,816
2017-09-19T06:01:37.441Z,804
2017-09-19T06:02:03.568Z,804
2017-09-19T06:02:29.689Z,804
2017-09-19T06:02:55.812Z,804
2017-09-19T06:03:21.935Z,800
2017-09-19T06:03:48.046Z,788
2017-09-19T06:04:14.174Z,784
2017-09-19T06:04:40.293Z,776
2017-09-19T06:05:06.418Z,780
2017-09-19T06:05:32.534Z,780
2017-09-19T06:05:58.656Z,784
2017-09-19T06:06:24.777Z,784
2017-09-19T06:06:50.897Z,788
2017-09-19T06:07:17.020Z,800
2017-09-19T06:07:43.145Z,816
2017-09-19T06:08:09.264Z,844
2017-09-19T06:08:35.387Z,868
2017-09-19T06:09:01.503Z,892
2017-09-19T06:09:27.623Z,912
2017-09-19T06:09:53.789Z,932
2017-09-19T06:10:19.908Z,972
2017-09-19T06:10:46.033Z,1024
2017-09-19T06:11:12.152Z,1076
2017-09-19T06:11:38.279Z,1108
2017-09-19T06:12:04.402Z,1132
2017-09-19T06:12:30.522Z,1168
2017-09-19T06:12:56.647Z,1204
2017-09-19T06:13:22.787Z,1252
2017-09-19T06:13:48.915Z,1320
2017-09-19T06:14:15.025Z,1432
2017-09-19T06:14:41.153Z,1552
2017-09-19T06:15:07.271Z,1644
2017-09-19T06:15:33.392Z,1676
2017-09-19T06:15:59.519Z,1664
2017-09-19T06:16:25.660Z,1628
2017-09-19T06:16:51.784Z,1572
2017-09-19T06:17:17.907Z,1516
2017-09-19T06:17:44.025Z,1468
2017-09-19T06:18:10.152Z,1408
2017-09-19T06:18:36.268Z,1360
2017-09-19T06:19:02.396Z,1312
2017-09-19T06:19:28.518Z,1272